createdAt,value
2022-10-23T00:00:33.571Z,22.83
2022-10-23T00:03:00.830Z,22.60
2022-10-23T00:05:28.042Z,21.00
2022-10-23T00:07:55.673Z,23.73
2022-10-23T00:10:22.467Z,22.40
2022-10-23T00:12:49.300Z,18.73
2022-10-23T00:15:16.999Z,16.08
2022-10-23T00:17:43.756Z,18.38
2022-10-23T00:20:10.826Z,17.63
2022-10-23T00:22:37.311Z,15.55
2022-10-23T00:25:05.091Z,19.92
2022-10-23T00:27:31.608Z,15.00
2022-10-23T00:29:57.856Z,21.00
2022-10-23T00:32:24.167Z,20.70
2022-10-23T00:34:50.514Z,16.73
2022-10-23T00:37:16.894Z,18.00
2022-10-23T00:39:43.146Z,17.20
2022-10-23T00:42:13.944Z,13.18
2022-10-23T00:47:06.357Z,14.70
2022-10-23T00:49:34.415Z,17.10
2022-10-23T00:52:01.997Z,19.75
2022-10-23T00:54:31.016Z,19.15
2022-10-23T00:56:59.560Z,20.95
2022-10-23T00:59:26.092Z,17.65
2022-10-23T01:01:52.517Z,16.02
2022-10-23T01:04:19.049Z,21.08
2022-10-23T01:06:49.007Z,20.50
2022-10-23T01:09:34.060Z,16.53
2022-10-23T01:12:18.622Z,13.23
2022-10-23T01:14:55.103Z,15.77
2022-10-23T01:17:33.383Z,15.57
2022-10-23T01:20:18.373Z,13.88
2022-10-23T01:22:50.795Z,13.65
2022-10-23T01:25:20.041Z,14.00
2022-10-23T01:27:50.057Z,14.18
2022-10-23T01:30:17.211Z,11.98
2022-10-23T01:32:58.118Z,22.08
2022-10-23T01:37:54.994Z,16.75
2022-10-23T01:40:37.412Z,14.50
2022-10-23T01:43:09.230Z,22.38
2022-10-23T01:45:57.101Z,19.38
2022-10-23T01:48:25.124Z,20.23
2022-10-23T01:50:53.103Z,18.50
2022-10-23T01:53:20.348Z,26.23
2022-10-23T01:55:47.468Z,19.92
2022-10-23T01:58:15.106Z,16.33
2022-10-23T02:00:43.034Z,18.33
2022-10-23T02:03:09.362Z,18.65
2022-10-23T02:05:35.762Z,21.00
2022-10-23T02:08:02.333Z,17.55
2022-10-23T02:10:39.662Z,18.00
2022-10-23T02:13:10.928Z,16.75
2022-10-23T02:15:40.767Z,17.20
2022-10-23T02:18:13.274Z,19.63
2022-10-23T02:20:48.230Z,18.23
2022-10-23T02:23:33.466Z,21.98
2022-10-23T02:26:02.460Z,17.83
2022-10-23T02:28:31.932Z,25.42
2022-10-23T02:30:59.561Z,22.45
2022-10-23T02:33:27.390Z,25.30
2022-10-23T02:35:53.694Z,25.77
2022-10-23T02:38:28.680Z,21.88
2022-10-23T02:40:56.412Z,19.10
2022-10-23T02:43:30.395Z,20.80
2022-10-23T02:45:59.896Z,16.45
2022-10-23T02:48:33.072Z,17.95
2022-10-23T02:51:14.248Z,17.80
2022-10-23T02:53:40.513Z,22.45
2022-10-23T02:56:20.884Z,24.35
2022-10-23T02:58:54.731Z,17.88
2022-10-23T03:01:22.859Z,19.55
2022-10-23T03:03:52.314Z,19.90
2022-10-23T03:06:18.959Z,22.15
2022-10-23T03:08:48.951Z,20.52
2022-10-23T03:11:15.274Z,20.30
2022-10-23T03:13:41.526Z,18.75
2022-10-23T03:16:07.879Z,18.70
2022-10-23T03:18:34.194Z,24.30
2022-10-23T03:21:00.592Z,19.88
2022-10-23T03:23:26.899Z,26.05
2022-10-23T03:25:53.509Z,25.52
2022-10-23T03:28:20.052Z,22.67
2022-10-23T03:30:46.294Z,15.70
2022-10-23T03:33:12.561Z,19.90
2022-10-23T03:35:38.845Z,25.50
2022-10-23T03:38:05.139Z,18.90
2022-10-23T03:40:31.410Z,19.33
2022-10-23T03:42:57.814Z,19.20
2022-10-23T03:45:24.341Z,21.23
2022-10-23T03:47:51.707Z,21.77
2022-10-23T03:50:18.581Z,26.48
2022-10-23T03:52:45.541Z,25.98
2022-10-23T03:55:12.014Z,27.67
2022-10-23T03:57:38.461Z,22.75
2022-10-23T04:00:05.696Z,17.45
2022-10-23T04:02:32.017Z,27.00
2022-10-23T04:04:59.535Z,21.08
2022-10-23T04:07:25.801Z,18.13
2022-10-23T04:09:52.054Z,18.90
2022-10-23T04:12:18.485Z,17.50
2022-10-23T04:14:44.746Z,22.17
2022-10-23T04:17:10.990Z,17.35
2022-10-23T04:19:37.220Z,20.02
2022-10-23T04:22:03.467Z,19.73
2022-10-23T04:24:29.716Z,20.25
2022-10-23T04:26:55.963Z,21.90
2022-10-23T04:29:24.448Z,19.42
2022-10-23T04:31:51.419Z,21.13
2022-10-23T04:34:18.639Z,23.25
2022-10-23T04:36:44.945Z,24.40
2022-10-23T04:39:11.175Z,18.58
2022-10-23T04:41:38.900Z,21.05
2022-10-23T04:44:05.158Z,20.15
2022-10-23T04:46:31.425Z,24.23
2022-10-23T04:48:57.682Z,18.25
2022-10-23T04:51:23.969Z,24.25
2022-10-23T04:53:50.258Z,17.90
2022-10-23T04:56:16.598Z,22.73
2022-10-23T04:58:42.870Z,25.52
2022-10-23T05:01:12.311Z,24.80
2022-10-23T05:03:38.820Z,22.42
2022-10-23T05:06:05.336Z,21.73
2022-10-23T05:08:31.631Z,17.48
2022-10-23T05:10:57.856Z,20.05
2022-10-23T05:13:24.158Z,21.02
2022-10-23T05:15:51.087Z,20.30
2022-10-23T05:18:21.924Z,20.42
2022-10-23T05:23:15.778Z,16.75
2022-10-23T05:25:42.017Z,23.60
2022-10-23T05:28:08.289Z,24.98
2022-10-23T05:30:34.733Z,23.05
2022-10-23T05:33:01.991Z,23.40
2022-10-23T05:35:29.455Z,22.52
2022-10-23T05:37:56.559Z,25.73
2022-10-23T05:40:22.849Z,28.30
2022-10-23T05:42:49.230Z,23.10
2022-10-23T05:45:15.730Z,21.63
2022-10-23T05:47:43.774Z,27.92
2022-10-23T05:50:10.084Z,28.13
2022-10-23T05:52:36.385Z,25.63
2022-10-23T05:55:02.713Z,26.17
2022-10-23T05:57:31.838Z,24.38
2022-10-23T05:59:58.071Z,23.88
2022-10-23T06:02:24.445Z,22.98
2022-10-23T06:04:50.743Z,23.77
2022-10-23T06:07:16.994Z,21.98
2022-10-23T06:09:43.269Z,23.30
2022-10-23T06:12:09.589Z,25.98
2022-10-23T06:14:35.857Z,24.65
2022-10-23T06:17:02.089Z,21.55
2022-10-23T06:19:28.531Z,22.20
2022-10-23T06:21:54.828Z,20.85
2022-10-23T06:24:21.226Z,24.02
2022-10-23T06:26:47.443Z,28.73
2022-10-23T06:29:13.721Z,22.52
2022-10-23T06:31:39.952Z,20.80
2022-10-23T06:34:06.195Z,23.75
2022-10-23T06:36:32.484Z,24.48
2022-10-23T06:41:26.101Z,21.52
2022-10-23T06:43:53.242Z,24.90
2022-10-23T06:46:19.844Z,21.27
2022-10-23T06:48:46.355Z,25.08
2022-10-23T06:51:16.597Z,21.88
2022-10-23T06:53:43.345Z,28.58
2022-10-23T06:56:10.072Z,25.98
2022-10-23T06:58:37.402Z,29.90
2022-10-23T07:01:05.331Z,26.83
2022-10-23T07:03:31.901Z,22.77
2022-10-23T07:06:02.213Z,23.67
2022-10-23T07:08:28.916Z,24.67
2022-10-23T07:10:55.206Z,17.02
2022-10-23T07:13:22.383Z,26.20
2022-10-23T07:15:48.636Z,21.50
2022-10-23T07:18:16.451Z,25.23
2022-10-23T07:20:42.969Z,23.35
2022-10-23T07:23:10.920Z,22.83
2022-10-23T07:25:37.673Z,23.90
2022-10-23T07:28:04.554Z,18.52
2022-10-23T07:30:31.127Z,20.48
2022-10-23T07:32:57.366Z,21.98
2022-10-23T07:35:23.779Z,18.73
2022-10-23T07:37:50.057Z,25.27
2022-10-23T07:40:17.220Z,18.95
2022-10-23T07:42:43.469Z,21.10
2022-10-23T07:45:10.187Z,24.20
2022-10-23T07:47:36.654Z,17.98
2022-10-23T07:50:02.967Z,18.00
2022-10-23T07:52:32.091Z,19.35
2022-10-23T07:55:01.327Z,24.63
2022-10-23T07:57:27.608Z,19.58
2022-10-23T07:59:54.531Z,17.08
2022-10-23T08:02:20.922Z,19.00
2022-10-23T08:04:48.687Z,18.67
2022-10-23T08:07:17.970Z,19.15
2022-10-23T08:09:46.669Z,17.85
2022-10-23T08:12:12.925Z,18.88
2022-10-23T08:14:41.619Z,20.95
2022-10-23T08:17:09.825Z,21.15
2022-10-23T08:19:39.983Z,14.40
2022-10-23T08:22:07.449Z,16.57
2022-10-23T08:24:33.709Z,17.42
2022-10-23T08:27:00.025Z,19.55
2022-10-23T08:29:26.383Z,13.95
2022-10-23T08:31:54.787Z,16.42
2022-10-23T08:34:21.097Z,15.43
2022-10-23T08:36:47.407Z,19.13
2022-10-23T08:39:13.666Z,16.20
2022-10-23T08:41:50.649Z,13.55
2022-10-23T08:44:20.561Z,17.60
2022-10-23T08:46:56.385Z,15.82
2022-10-23T08:49:37.868Z,14.43
2022-10-23T08:52:13.266Z,15.10
2022-10-23T08:54:40.392Z,14.07
2022-10-23T08:57:12.859Z,16.17
2022-10-23T08:59:50.309Z,15.15
2022-10-23T09:02:20.496Z,11.57
2022-10-23T09:04:50.317Z,19.17
2022-10-23T09:07:29.576Z,10.35
2022-10-23T09:10:05.346Z,13.98
2022-10-23T09:12:31.921Z,13.07
2022-10-23T09:15:17.045Z,12.82
2022-10-23T09:17:48.842Z,13.73
2022-10-23T09:20:28.704Z,11.57
2022-10-23T09:23:02.011Z,12.60
2022-10-23T09:25:37.252Z,11.35
2022-10-23T09:28:05.547Z,12.98
2022-10-23T09:30:42.694Z,13.27
2022-10-23T09:33:26.689Z,15.73
2022-10-23T09:35:53.096Z,14.35
2022-10-23T09:38:31.790Z,11.75
2022-10-23T09:41:33.229Z,14.68
2022-10-23T09:44:08.702Z,12.85
2022-10-23T09:46:39.622Z,13.57
2022-10-23T09:49:09.393Z,10.70
2022-10-23T09:51:35.721Z,12.40
2022-10-23T09:54:04.203Z,10.48
2022-10-23T09:56:39.565Z,11.55
2022-10-23T09:59:12.033Z,12.05
2022-10-23T10:01:55.659Z,10.52
2022-10-23T10:04:32.101Z,10.93
2022-10-23T10:06:59.413Z,8.65
2022-10-23T10:09:26.669Z,13.63
2022-10-23T10:11:54.642Z,15.02
2022-10-23T10:14:27.024Z,14.00
2022-10-23T10:17:05.496Z,13.52
2022-10-23T10:19:39.999Z,11.30
2022-10-23T10:22:25.288Z,9.85
2022-10-23T10:25:10.083Z,23.23
2022-10-23T10:27:51.971Z,32.28
2022-10-23T10:30:19.370Z,11.43
2022-10-23T10:32:59.094Z,12.82
2022-10-23T10:35:29.340Z,12.23
2022-10-23T10:38:14.666Z,14.15
2022-10-23T10:40:46.969Z,10.13
2022-10-23T10:43:32.194Z,14.25
2022-10-23T10:46:07.665Z,9.63
2022-10-23T10:48:51.657Z,8.50
2022-10-23T10:51:38.189Z,10.05
2022-10-23T10:54:10.249Z,9.63
2022-10-23T10:56:39.366Z,11.13
2022-10-23T10:59:23.263Z,9.25
2022-10-23T11:01:53.341Z,15.55
2022-10-23T11:04:35.362Z,12.75
2022-10-23T11:07:05.219Z,12.48
2022-10-23T11:09:31.682Z,15.00
2022-10-23T11:12:00.803Z,23.63
2022-10-23T11:14:29.085Z,12.23
2022-10-23T11:17:09.688Z,7.47
2022-10-23T11:19:45.189Z,14.40
2022-10-23T11:22:39.270Z,13.05
2022-10-23T11:25:22.075Z,13.40
2022-10-23T11:27:49.740Z,11.05
2022-10-23T11:30:19.261Z,10.15
2022-10-23T11:33:15.546Z,16.67
2022-10-23T11:35:47.957Z,11.45
2022-10-23T11:38:18.943Z,8.57
2022-10-23T11:43:34.005Z,6.20
2022-10-23T11:46:16.436Z,8.80
2022-10-23T11:48:43.948Z,8.18
2022-10-23T11:51:29.111Z,10.65
2022-10-23T11:56:55.548Z,8.50
2022-10-23T11:59:30.328Z,10.10
2022-10-23T12:02:02.595Z,8.60
2022-10-23T12:04:35.036Z,9.05
2022-10-23T12:07:05.804Z,8.35
2022-10-23T12:09:53.769Z,6.78
2022-10-23T12:12:28.866Z,9.80
2022-10-23T12:15:06.711Z,8.52
2022-10-23T12:17:43.839Z,8.40
2022-10-23T12:20:10.454Z,7.45
2022-10-23T12:22:39.635Z,11.95
2022-10-23T12:25:12.513Z,10.80
2022-10-23T12:27:48.772Z,8.40
2022-10-23T12:30:28.863Z,7.30
2022-10-23T12:33:15.478Z,6.90
2022-10-23T12:35:53.782Z,7.32
2022-10-23T12:38:21.862Z,6.97
2022-10-23T12:40:52.141Z,6.05
2022-10-23T12:43:26.162Z,7.30
2022-10-23T12:45:52.901Z,9.07
2022-10-23T12:48:21.247Z,6.53
2022-10-23T12:50:51.904Z,5.72
2022-10-23T12:58:40.821Z,9.93
2022-10-23T13:01:07.317Z,11.27
2022-10-23T13:03:34.028Z,6.97
2022-10-23T13:06:32.554Z,6.47
2022-10-23T13:09:01.479Z,9.00
2022-10-23T13:11:28.044Z,6.40
2022-10-23T13:13:54.389Z,9.02
2022-10-23T13:16:22.065Z,8.57
2022-10-23T13:18:48.891Z,9.90
2022-10-23T13:21:22.397Z,6.65
2022-10-23T13:23:48.917Z,7.35
2022-10-23T13:26:23.668Z,10.15
2022-10-23T13:28:53.660Z,8.68
2022-10-23T13:31:25.048Z,6.68
2022-10-23T13:34:06.174Z,6.28
2022-10-23T13:36:39.515Z,5.68
2022-10-23T13:39:11.713Z,7.38
2022-10-23T13:41:37.944Z,9.85
2022-10-23T13:44:16.235Z,7.00
2022-10-23T13:50:41.817Z,5.22
2022-10-23T13:53:22.747Z,5.28
2022-10-23T13:55:52.492Z,5.65
2022-10-23T13:58:21.151Z,5.38
2022-10-23T14:00:50.401Z,9.73
2022-10-23T14:03:17.330Z,7.47
2022-10-23T14:05:43.869Z,7.93
2022-10-23T14:08:13.301Z,7.50
2022-10-23T14:10:42.593Z,10.50
2022-10-23T14:13:10.744Z,9.07
2022-10-23T14:15:37.014Z,8.55
2022-10-23T14:18:07.328Z,5.75
2022-10-23T14:20:34.569Z,5.32
2022-10-23T14:23:00.837Z,6.75
2022-10-23T14:25:27.062Z,5.55
2022-10-23T14:27:53.302Z,6.40
2022-10-23T14:30:19.561Z,5.82
2022-10-23T14:32:46.292Z,8.20
2022-10-23T14:35:12.719Z,6.57
2022-10-23T14:37:39.381Z,5.10
2022-10-23T14:40:06.195Z,6.22
2022-10-23T14:42:34.338Z,8.55
2022-10-23T14:45:02.508Z,8.10
2022-10-23T14:47:28.835Z,8.65
2022-10-23T14:49:56.118Z,9.23
2022-10-23T14:52:25.540Z,6.97
2022-10-23T14:54:53.230Z,8.93
2022-10-23T14:57:21.512Z,9.43
2022-10-23T14:59:50.747Z,13.02
2022-10-23T15:02:17.617Z,7.85
2022-10-23T15:04:44.085Z,11.15
2022-10-23T15:07:10.339Z,6.25
2022-10-23T15:09:37.324Z,8.82
2022-10-23T15:12:04.294Z,11.70
2022-10-23T15:14:30.654Z,11.18
2022-10-23T15:16:56.942Z,10.98
2022-10-23T15:19:23.447Z,12.75
2022-10-23T15:21:49.758Z,13.60
2022-10-23T15:24:16.723Z,15.40
2022-10-23T15:26:43.899Z,11.65
2022-10-23T15:29:11.197Z,9.48
2022-10-23T15:31:37.591Z,11.75
2022-10-23T15:34:07.928Z,7.80
2022-10-23T15:36:38.134Z,8.70
2022-10-23T15:39:08.881Z,10.93
2022-10-23T15:41:36.100Z,7.07
2022-10-23T15:44:02.828Z,8.88
2022-10-23T15:46:29.245Z,9.25
2022-10-23T15:48:55.459Z,6.38
2022-10-23T15:51:21.676Z,8.65
2022-10-23T15:53:48.078Z,7.45
2022-10-23T15:56:14.410Z,7.38
2022-10-23T15:58:40.643Z,8.00
2022-10-23T16:01:06.996Z,9.00
2022-10-23T16:03:34.328Z,8.00
2022-10-23T16:06:03.453Z,6.80
2022-10-23T16:08:29.747Z,7.32
2022-10-23T16:10:56.022Z,9.02
2022-10-23T16:13:22.310Z,9.27
2022-10-23T16:15:48.547Z,7.82
2022-10-23T16:18:16.294Z,8.60
2022-10-23T16:23:55.630Z,6.50
2022-10-23T16:26:22.452Z,5.90
2022-10-23T16:28:52.271Z,8.88
2022-10-23T16:31:20.511Z,7.28
2022-10-23T16:33:47.811Z,9.18
2022-10-23T16:36:14.134Z,9.77
2022-10-23T16:38:40.402Z,7.53
2022-10-23T16:41:07.219Z,9.73
2022-10-23T16:43:33.716Z,9.60
2022-10-23T16:46:14.066Z,11.60
2022-10-23T16:48:40.585Z,9.07
2022-10-23T16:51:07.792Z,11.68
2022-10-23T16:53:35.839Z,12.18
2022-10-23T16:56:06.403Z,8.57
2022-10-23T16:58:33.222Z,11.35
2022-10-23T17:01:05.981Z,6.30
2022-10-23T17:03:40.487Z,8.95
2022-10-23T17:06:08.951Z,14.85
2022-10-23T17:11:24.131Z,14.68
2022-10-23T17:13:58.651Z,16.92
2022-10-23T17:16:27.948Z,9.48
2022-10-23T17:18:54.490Z,13.98
2022-10-23T17:21:21.590Z,9.55
2022-10-23T17:23:48.031Z,12.13
2022-10-23T17:26:16.888Z,12.73
2022-10-23T17:28:46.523Z,11.13
2022-10-23T17:31:17.560Z,14.20
2022-10-23T17:33:44.344Z,13.70
2022-10-23T17:36:11.417Z,10.32
2022-10-23T17:38:38.839Z,12.30
2022-10-23T17:41:05.621Z,14.32
2022-10-23T17:43:31.854Z,7.13
2022-10-23T17:45:58.270Z,6.57
2022-10-23T17:48:25.179Z,7.05
2022-10-23T17:51:00.464Z,12.10
2022-10-23T17:53:26.702Z,10.77
2022-10-23T17:55:55.349Z,9.40
2022-10-23T17:58:21.753Z,10.05
2022-10-23T18:00:49.357Z,9.52
2022-10-23T18:03:19.727Z,11.57
2022-10-23T18:08:15.401Z,12.48
2022-10-23T18:10:41.654Z,11.60
2022-10-23T18:13:07.887Z,14.45
2022-10-23T18:15:35.664Z,12.80
2022-10-23T18:18:07.635Z,16.67
2022-10-23T18:20:38.424Z,19.02
2022-10-23T18:23:04.683Z,10.10
2022-10-23T18:25:30.918Z,14.40
2022-10-23T18:28:01.705Z,14.38
2022-10-23T18:30:28.975Z,15.60
2022-10-23T18:32:58.018Z,11.23
2022-10-23T18:35:24.698Z,12.38
2022-10-23T18:37:51.101Z,12.77
2022-10-23T18:40:17.466Z,11.35
2022-10-23T18:42:44.018Z,14.50
2022-10-23T18:45:19.340Z,18.13
2022-10-23T18:47:46.107Z,15.30
2022-10-23T18:50:12.692Z,14.02
2022-10-23T18:52:38.938Z,11.90
2022-10-23T18:55:06.288Z,10.68
2022-10-23T18:57:41.095Z,9.50
2022-10-23T19:00:11.362Z,8.20
2022-10-23T19:02:52.155Z,13.65
2022-10-23T19:05:21.479Z,8.95
2022-10-23T19:07:52.310Z,9.77
2022-10-23T19:10:33.651Z,9.50
2022-10-23T19:13:03.015Z,6.78
2022-10-23T19:15:33.972Z,8.40
2022-10-23T19:18:15.460Z,11.35
2022-10-23T19:20:45.136Z,8.98
2022-10-23T19:23:13.961Z,11.70
2022-10-23T19:25:46.532Z,9.55
2022-10-23T19:30:41.905Z,11.50
2022-10-23T19:33:14.296Z,9.85
2022-10-23T19:35:43.073Z,9.23
2022-10-23T19:38:11.912Z,11.77
2022-10-23T19:40:56.402Z,9.13
2022-10-23T19:43:24.993Z,10.50
2022-10-23T19:46:10.955Z,10.38
2022-10-23T19:48:42.229Z,9.75
2022-10-23T19:51:13.957Z,7.88
2022-10-23T19:53:41.233Z,10.90
2022-10-23T19:56:32.519Z,10.65
2022-10-23T19:58:58.791Z,12.60
2022-10-23T20:01:34.233Z,9.02
2022-10-23T20:04:10.869Z,8.63
2022-10-23T20:06:44.294Z,7.47
2022-10-23T20:09:10.812Z,8.80
2022-10-23T20:11:42.743Z,10.15
2022-10-23T20:14:09.155Z,10.10
2022-10-23T20:16:38.636Z,6.70
2022-10-23T20:21:44.463Z,6.28
2022-10-23T20:24:11.697Z,6.65
2022-10-23T20:26:45.523Z,4.35
2022-10-23T20:29:15.613Z,4.75
2022-10-23T20:31:45.186Z,6.10
2022-10-23T20:34:11.858Z,7.43
2022-10-23T20:36:45.448Z,6.00
2022-10-23T20:39:14.683Z,8.93
2022-10-23T20:41:44.957Z,9.18
2022-10-23T20:44:12.970Z,5.78
2022-10-23T20:46:39.803Z,5.38
2022-10-23T20:49:06.062Z,5.20
2022-10-23T20:51:32.565Z,4.72
2022-10-23T20:54:02.012Z,5.15
2022-10-23T20:56:31.290Z,6.57
2022-10-23T20:59:02.109Z,4.40
2022-10-23T21:01:29.026Z,5.75
2022-10-23T21:03:57.027Z,5.80
2022-10-23T21:06:23.851Z,5.70
2022-10-23T21:08:53.818Z,5.25
2022-10-23T21:11:20.054Z,5.93
2022-10-23T21:13:46.348Z,5.72
2022-10-23T21:16:24.862Z,7.20
2022-10-23T21:18:54.704Z,4.07
2022-10-23T21:21:21.058Z,6.30
2022-10-23T21:23:47.949Z,6.05
2022-10-23T21:26:14.223Z,5.97
2022-10-23T21:28:47.287Z,7.20
2022-10-23T21:31:22.206Z,4.63
2022-10-23T21:33:48.973Z,6.25
2022-10-23T21:36:19.890Z,3.80
2022-10-23T21:38:47.108Z,3.80
2022-10-23T21:41:15.465Z,5.32
2022-10-23T21:43:42.009Z,4.97
2022-10-23T21:46:13.373Z,3.28
2022-10-23T21:48:39.751Z,3.47
2022-10-23T21:51:06.088Z,7.00
2022-10-23T21:53:32.808Z,4.38
2022-10-23T21:56:03.216Z,6.32
2022-10-23T21:58:29.444Z,4.60
2022-10-23T22:00:55.763Z,4.97
2022-10-23T22:03:22.138Z,5.18
2022-10-23T22:05:48.481Z,5.60
2022-10-23T22:08:14.755Z,4.63
2022-10-23T22:10:41.020Z,6.55
2022-10-23T22:13:07.264Z,7.35
2022-10-23T22:15:33.624Z,6.10
2022-10-23T22:18:00.398Z,6.03
2022-10-23T22:20:26.689Z,5.93
2022-10-23T22:22:52.981Z,4.55
2022-10-23T22:25:19.224Z,3.95
2022-10-23T22:27:45.701Z,7.03
2022-10-23T22:30:12.385Z,6.43
2022-10-23T22:32:38.622Z,7.93
2022-10-23T22:35:05.141Z,13.02
2022-10-23T22:37:31.381Z,7.03
2022-10-23T22:39:57.694Z,11.48
2022-10-23T22:42:23.917Z,8.40
2022-10-23T22:44:50.184Z,8.50
2022-10-23T22:47:16.405Z,6.50
2022-10-23T22:49:42.695Z,6.65
2022-10-23T22:52:08.936Z,10.18
2022-10-23T22:54:35.154Z,9.32
2022-10-23T22:57:01.418Z,5.93
2022-10-23T22:59:27.844Z,8.55
2022-10-23T23:01:54.409Z,6.72
2022-10-23T23:07:08.754Z,8.13
2022-10-23T23:09:35.766Z,6.95
2022-10-23T23:12:02.034Z,10.68
2022-10-23T23:14:28.281Z,5.88
2022-10-23T23:16:54.604Z,5.70
2022-10-23T23:19:23.189Z,7.43
2022-10-23T23:21:49.709Z,4.38
2022-10-23T23:24:15.984Z,6.10
2022-10-23T23:26:42.337Z,8.93
2022-10-23T23:29:08.608Z,7.35
2022-10-23T23:31:34.862Z,9.07
2022-10-23T23:34:01.140Z,4.45
2022-10-23T23:36:27.625Z,9.02
2022-10-23T23:38:55.220Z,6.40
2022-10-23T23:41:21.682Z,7.68
2022-10-23T23:43:48.476Z,11.98
2022-10-23T23:46:15.335Z,8.98
2022-10-23T23:48:42.591Z,8.90
2022-10-23T23:51:09.143Z,7.28
2022-10-23T23:53:35.477Z,9.02
2022-10-23T23:56:01.719Z,11.00
2022-10-23T23:58:27.953Z,12.73
